sensor_id;sensor_type;location;lat;lon;timestamp;pressure;altitude;pressure_sealevel;temperature;humidity
13456;BME280;6800;50.940;6.940;2024-03-08T00:01:19;101014.06;;;12.07;38.26
13456;BME280;6800;50.940;6.940;2024-03-08T00:05:21;101000.91;;;12.67;37.32
13456;BME280;6800;50.940;6.940;2024-03-08T00:09:23;100990.97;;;12.57;37.43
13456;BME280;6800;50.940;6.940;2024-03-08T00:13:24;100991.09;;;12.56;37.37
13456;BME280;6800;50.940;6.940;2024-03-08T00:17:26;100993.69;;;12.42;37.79
13456;BME280;6800;50.940;6.940;2024-03-08T00:21:28;100990.91;;;12.59;37.51
13456;BME280;6800;50.940;6.940;2024-03-08T00:25:30;100982.53;;;12.38;38.45
13456;BME280;6800;50.940;6.940;2024-03-08T00:29:32;100984.88;;;12.43;37.66
13456;BME280;6800;50.940;6.940;2024-03-08T00:33:33;100977.63;;;12.48;37.76
13456;BME280;6800;50.940;6.940;2024-03-08T00:37:35;100979.38;;;12.47;37.83
13456;BME280;6800;50.940;6.940;2024-03-08T00:41:36;100975.50;;;12.11;38.28
13456;BME280;6800;50.940;6.940;2024-03-08T00:45:38;100967.03;;;12.35;38.01
13456;BME280;6800;50.940;6.940;2024-03-08T00:49:41;100965.25;;;12.36;37.40
13456;BME280;6800;50.940;6.940;2024-03-08T00:53:43;100968.06;;;12.03;38.04
13456;BME280;6800;50.940;6.940;2024-03-08T00:57:44;100959.50;;;12.15;37.73
13456;BME280;6800;50.940;6.940;2024-03-08T01:01:46;100953.31;;;12.32;37.49
13456;BME280;6800;50.940;6.940;2024-03-08T01:05:47;100959.56;;;12.29;37.54
13456;BME280;6800;50.940;6.940;2024-03-08T01:09:49;100953.88;;;12.07;38.26
13456;BME280;6800;50.940;6.940;2024-03-08T01:13:50;100947.75;;;12.22;38.09
13456;BME280;6800;50.940;6.940;2024-03-08T01:17:52;100940.69;;;12.09;38.63
13456;BME280;6800;50.940;6.940;2024-03-08T01:21:53;100933.91;;;11.61;39.05
13456;BME280;6800;50.940;6.940;2024-03-08T01:25:57;100933.72;;;11.80;38.82
13456;BME280;6800;50.940;6.940;2024-03-08T01:29:59;100924.38;;;11.75;38.58
13456;BME280;6800;50.940;6.940;2024-03-08T01:34:01;100922.63;;;11.90;39.20
13456;BME280;6800;50.940;6.940;2024-03-08T01:38:02;100911.88;;;11.81;38.78
13456;BME280;6800;50.940;6.940;2024-03-08T01:42:08;100912.78;;;12.09;39.15
13456;BME280;6800;50.940;6.940;2024-03-08T01:46:10;100909.19;;;11.96;38.46
13456;BME280;6800;50.940;6.940;2024-03-08T01:50:14;100896.19;;;11.65;39.51
13456;BME280;6800;50.940;6.940;2024-03-08T01:54:18;100889.47;;;11.91;38.81
13456;BME280;6800;50.940;6.940;2024-03-08T01:58:22;100884.00;;;12.09;38.09
13456;BME280;6800;50.940;6.940;2024-03-08T02:02:24;100889.69;;;12.02;38.36
13456;BME280;6800;50.940;6.940;2024-03-08T02:06:26;100885.34;;;11.72;39.42
13456;BME280;6800;50.940;6.940;2024-03-08T02:10:28;100880.91;;;12.03;38.57
13456;BME280;6800;50.940;6.940;2024-03-08T02:14:30;100881.66;;;12.05;38.74
13456;BME280;6800;50.940;6.940;2024-03-08T02:18:32;100880.50;;;11.81;39.38
13456;BME280;6800;50.940;6.940;2024-03-08T02:22:36;100872.59;;;11.66;39.32
13456;BME280;6800;50.940;6.940;2024-03-08T02:26:37;100863.06;;;11.95;39.10
13456;BME280;6800;50.940;6.940;2024-03-08T02:30:39;100862.31;;;11.93;39.00
13456;BME280;6800;50.940;6.940;2024-03-08T02:34:41;100861.78;;;12.02;38.70
13456;BME280;6800;50.940;6.940;2024-03-08T02:38:43;100861.81;;;11.87;39.22
13456;BME280;6800;50.940;6.940;2024-03-08T02:42:44;100850.41;;;11.88;39.23
13456;BME280;6800;50.940;6.940;2024-03-08T02:46:46;100850.41;;;11.73;39.56
13456;BME280;6800;50.940;6.940;2024-03-08T02:50:47;100845.16;;;11.73;39.43
13456;BME280;6800;50.940;6.940;2024-03-08T02:54:49;100840.38;;;11.66;39.17
13456;BME280;6800;50.940;6.940;2024-03-08T02:58:51;100838.06;;;11.75;38.85
13456;BME280;6800;50.940;6.940;2024-03-08T03:02:52;100834.97;;;11.69;39.63
13456;BME280;6800;50.940;6.940;2024-03-08T03:06:55;100840.31;;;11.52;39.66
13456;BME280;6800;50.940;6.940;2024-03-08T03:10:56;100840.75;;;11.60;39.32
13456;BME280;6800;50.940;6.940;2024-03-08T03:14:58;100836.06;;;11.65;39.63
13456;BME280;6800;50.940;6.940;2024-03-08T03:19:00;100829.38;;;11.75;38.94
13456;BME280;6800;50.940;6.940;2024-03-08T03:23:03;100822.22;;;11.79;38.86
13456;BME280;6800;50.940;6.940;2024-03-08T03:27:04;100823.50;;;11.71;38.87
13456;BME280;6800;50.940;6.940;2024-03-08T03:31:12;100821.28;;;11.50;39.78
13456;BME280;6800;50.940;6.940;2024-03-08T03:35:17;100816.84;;;11.66;39.69
13456;BME280;6800;50.940;6.940;2024-03-08T03:39:18;100821.06;;;11.68;39.09
13456;BME280;6800;50.940;6.940;2024-03-08T03:43:21;100817.75;;;11.51;39.49
13456;BME280;6800;50.940;6.940;2024-03-08T03:47:23;100819.81;;;11.60;39.36
13456;BME280;6800;50.940;6.940;2024-03-08T03:51:24;100815.09;;;11.66;39.50
13456;BME280;6800;50.940;6.940;2024-03-08T03:55:27;100809.69;;;11.54;39.56
13456;BME280;6800;50.940;6.940;2024-03-08T03:59:29;100799.84;;;11.29;40.29
13456;BME280;6800;50.940;6.940;2024-03-08T04:03:30;100801.44;;;11.61;39.24
13456;BME280;6800;50.940;6.940;2024-03-08T04:07:32;100803.19;;;11.47;39.49
13456;BME280;6800;50.940;6.940;2024-03-08T04:11:34;100795.97;;;11.50;39.75
13456;BME280;6800;50.940;6.940;2024-03-08T04:15:35;100796.50;;;11.41;39.61
13456;BME280;6800;50.940;6.940;2024-03-08T04:19:37;100791.13;;;11.44;39.36
13456;BME280;6800;50.940;6.940;2024-03-08T04:23:39;100796.78;;;11.37;39.96
13456;BME280;6800;50.940;6.940;2024-03-08T04:27:41;100791.22;;;11.43;39.79
13456;BME280;6800;50.940;6.940;2024-03-08T04:31:42;100791.59;;;11.51;39.76
13456;BME280;6800;50.940;6.940;2024-03-08T04:35:44;100792.97;;;11.42;39.48
13456;BME280;6800;50.940;6.940;2024-03-08T04:39:47;100788.59;;;11.43;39.46
13456;BME280;6800;50.940;6.940;2024-03-08T04:43:49;100784.78;;;11.48;39.42
13456;BME280;6800;50.940;6.940;2024-03-08T04:47:51;100782.75;;;11.53;39.40
13456;BME280;6800;50.940;6.940;2024-03-08T04:51:54;100773.47;;;11.48;39.68
13456;BME280;6800;50.940;6.940;2024-03-08T04:55:55;100766.94;;;11.41;39.58
13456;BME280;6800;50.940;6.940;2024-03-08T04:59:59;100762.00;;;11.50;39.58
13456;BME280;6800;50.940;6.940;2024-03-08T05:04:01;100765.78;;;11.31;39.61
13456;BME280;6800;50.940;6.940;2024-03-08T05:08:06;100751.44;;;11.52;39.01
13456;BME280;6800;50.940;6.940;2024-03-08T05:12:08;100754.34;;;11.18;40.34
13456;BME280;6800;50.940;6.940;2024-03-08T05:16:10;100753.47;;;11.33;39.59
13456;BME280;6800;50.940;6.940;2024-03-08T05:20:11;100743.88;;;11.47;39.39
13456;BME280;6800;50.940;6.940;2024-03-08T05:24:15;100749.41;;;11.43;39.65
13456;BME280;6800;50.940;6.940;2024-03-08T05:28:17;100739.88;;;11.42;40.06
13456;BME280;6800;50.940;6.940;2024-03-08T05:32:19;100742.94;;;11.34;39.97
13456;BME280;6800;50.940;6.940;2024-03-08T05:36:21;100748.16;;;11.34;40.14
13456;BME280;6800;50.940;6.940;2024-03-08T05:40:23;100749.56;;;11.26;40.15
13456;BME280;6800;50.940;6.940;2024-03-08T05:44:25;100742.38;;;11.43;40.21
13456;BME280;6800;50.940;6.940;2024-03-08T05:48:30;100734.22;;;11.20;40.85
13456;BME280;6800;50.940;6.940;2024-03-08T05:52:33;100726.91;;;11.40;40.07
13456;BME280;6800;50.940;6.940;2024-03-08T05:56:36;100726.25;;;11.51;39.59
13456;BME280;6800;50.940;6.940;2024-03-08T06:00:41;100728.28;;;11.32;40.39
13456;BME280;6800;50.940;6.940;2024-03-08T06:04:42;100729.19;;;11.31;40.59
13456;BME280;6800;50.940;6.940;2024-03-08T06:08:43;100729.47;;;11.26;40.57
13456;BME280;6800;50.940;6.940;2024-03-08T06:12:45;100724.31;;;10.81;41.65
13456;BME280;6800;50.940;6.940;2024-03-08T06:16:47;100725.63;;;11.18;41.22
13456;BME280;6800;50.940;6.940;2024-03-08T06:20:48;100721.00;;;11.37;40.14
13456;BME280;6800;50.940;6.940;2024-03-08T06:24:50;100721.16;;;10.90;41.85
13456;BME280;6800;50.940;6.940;2024-03-08T06:28:52;100718.28;;;10.94;41.55
13456;BME280;6800;50.940;6.940;2024-03-08T06:32:54;100710.16;;;11.29;40.79
13456;BME280;6800;50.940;6.940;2024-03-08T06:36:56;100714.91;;;10.92;41.08
13456;BME280;6800;50.940;6.940;2024-03-08T06:41:02;100706.63;;;11.30;41.12
13456;BME280;6800;50.940;6.940;2024-03-08T06:45:05;100710.47;;;11.52;40.22
13456;BME280;6800;50.940;6.940;2024-03-08T06:49:08;100706.47;;;11.61;39.94
13456;BME280;6800;50.940;6.940;2024-03-08T06:53:12;100703.13;;;12.01;39.29
13456;BME280;6800;50.940;6.940;2024-03-08T06:57:15;100704.31;;;12.10;39.00
13456;BME280;6800;50.940;6.940;2024-03-08T07:01:18;100698.91;;;11.99;39.18
13456;BME280;6800;50.940;6.940;2024-03-08T07:05:19;100705.13;;;12.24;39.21
13456;BME280;6800;50.940;6.940;2024-03-08T07:09:21;100700.97;;;12.08;39.25
13456;BME280;6800;50.940;6.940;2024-03-08T07:13:23;100704.16;;;11.85;39.82
13456;BME280;6800;50.940;6.940;2024-03-08T07:17:24;100697.50;;;12.21;38.57
13456;BME280;6800;50.940;6.940;2024-03-08T07:21:26;100695.63;;;12.23;38.75
13456;BME280;6800;50.940;6.940;2024-03-08T07:25:28;100686.88;;;12.64;38.05
13456;BME280;6800;50.940;6.940;2024-03-08T07:29:34;100684.50;;;12.73;40.11
13456;BME280;6800;50.940;6.940;2024-03-08T07:33:36;100678.44;;;12.98;37.83
13456;BME280;6800;50.940;6.940;2024-03-08T07:37:38;100670.94;;;12.67;37.90
13456;BME280;6800;50.940;6.940;2024-03-08T07:41:41;100665.44;;;13.23;38.01
13456;BME280;6800;50.940;6.940;2024-03-08T07:45:42;100669.94;;;12.82;38.24
13456;BME280;6800;50.940;6.940;2024-03-08T07:49:44;100654.72;;;13.51;36.59
13456;BME280;6800;50.940;6.940;2024-03-08T07:53:45;100650.72;;;14.43;35.38
13456;BME280;6800;50.940;6.940;2024-03-08T07:57:47;100648.56;;;14.25;35.64
13456;BME280;6800;50.940;6.940;2024-03-08T08:01:49;100638.97;;;14.95;34.30
13456;BME280;6800;50.940;6.940;2024-03-08T08:05:50;100634.41;;;14.85;34.02
13456;BME280;6800;50.940;6.940;2024-03-08T08:09:52;100625.94;;;15.50;33.92
13456;BME280;6800;50.940;6.940;2024-03-08T08:13:54;100620.06;;;15.57;33.96
13456;BME280;6800;50.940;6.940;2024-03-08T08:17:58;100609.44;;;16.45;32.33
13456;BME280;6800;50.940;6.940;2024-03-08T08:22:00;100604.78;;;17.10;30.92
13456;BME280;6800;50.940;6.940;2024-03-08T08:26:01;100596.13;;;16.98;30.57
13456;BME280;6800;50.940;6.940;2024-03-08T08:30:06;100598.84;;;15.92;32.43
13456;BME280;6800;50.940;6.940;2024-03-08T08:34:10;100586.75;;;15.12;34.20
13456;BME280;6800;50.940;6.940;2024-03-08T08:38:12;100568.91;;;18.17;30.13
13456;BME280;6800;50.940;6.940;2024-03-08T08:42:14;100575.75;;;16.27;32.39
13456;BME280;6800;50.940;6.940;2024-03-08T08:46:18;100558.59;;;17.95;29.80
13456;BME280;6800;50.940;6.940;2024-03-08T08:50:22;100551.00;;;17.52;30.57
13456;BME280;6800;50.940;6.940;2024-03-08T08:54:27;100551.47;;;17.06;30.26
13456;BME280;6800;50.940;6.940;2024-03-08T08:58:29;100543.00;;;17.92;29.85
13456;BME280;6800;50.940;6.940;2024-03-08T09:02:30;100538.91;;;19.39;27.76
13456;BME280;6800;50.940;6.940;2024-03-08T09:06:32;100532.16;;;18.72;28.12
13456;BME280;6800;50.940;6.940;2024-03-08T09:10:33;100531.47;;;19.16;27.63
13456;BME280;6800;50.940;6.940;2024-03-08T09:14:35;100520.88;;;20.33;26.47
13456;BME280;6800;50.940;6.940;2024-03-08T09:18:37;100529.63;;;19.80;26.68
13456;BME280;6800;50.940;6.940;2024-03-08T09:22:38;100521.84;;;20.14;26.49
13456;BME280;6800;50.940;6.940;2024-03-08T09:26:41;100513.91;;;20.32;25.69
13456;BME280;6800;50.940;6.940;2024-03-08T09:30:44;100510.97;;;21.61;25.69
13456;BME280;6800;50.940;6.940;2024-03-08T09:34:59;100504.34;;;20.03;26.52
13456;BME280;6800;50.940;6.940;2024-03-08T09:39:02;100494.00;;;22.61;23.48
13456;BME280;6800;50.940;6.940;2024-03-08T09:43:04;100487.56;;;20.81;24.95
13456;BME280;6800;50.940;6.940;2024-03-08T09:47:06;100469.06;;;22.45;23.81
13456;BME280;6800;50.940;6.940;2024-03-08T09:51:08;100467.69;;;20.93;24.71
13456;BME280;6800;50.940;6.940;2024-03-08T09:55:15;100462.09;;;21.30;24.55
13456;BME280;6800;50.940;6.940;2024-03-08T09:59:19;100467.78;;;22.88;22.90
13456;BME280;6800;50.940;6.940;2024-03-08T10:03:27;100444.28;;;22.45;23.56
13456;BME280;6800;50.940;6.940;2024-03-08T10:07:29;100446.66;;;23.87;22.04
13456;BME280;6800;50.940;6.940;2024-03-08T10:11:30;100436.88;;;23.57;22.29
13456;BME280;6800;50.940;6.940;2024-03-08T10:15:31;100426.69;;;25.87;20.24
13456;BME280;6800;50.940;6.940;2024-03-08T10:19:34;100432.25;;;23.51;22.25
13456;BME280;6800;50.940;6.940;2024-03-08T10:23:36;100419.88;;;23.80;21.25
13456;BME280;6800;50.940;6.940;2024-03-08T10:27:39;100417.50;;;23.01;22.63
13456;BME280;6800;50.940;6.940;2024-03-08T10:31:43;100402.38;;;25.11;20.24
13456;BME280;6800;50.940;6.940;2024-03-08T10:35:46;100399.47;;;25.27;19.80
13456;BME280;6800;50.940;6.940;2024-03-08T10:39:58;100385.97;;;23.89;21.12
13456;BME280;6800;50.940;6.940;2024-03-08T10:44:48;100393.72;;;21.48;23.01
13456;BME280;6800;50.940;6.940;2024-03-08T10:48:52;100373.56;;;24.19;20.71
13456;BME280;6800;50.940;6.940;2024-03-08T10:52:54;100375.03;;;25.09;20.25
13456;BME280;6800;50.940;6.940;2024-03-08T10:56:59;100368.91;;;23.75;20.76
13456;BME280;6800;50.940;6.940;2024-03-08T11:01:00;100379.66;;;22.20;21.77
13456;BME280;6800;50.940;6.940;2024-03-08T11:05:02;100366.75;;;24.45;20.00
13456;BME280;6800;50.940;6.940;2024-03-08T11:09:11;100367.91;;;23.76;20.36
13456;BME280;6800;50.940;6.940;2024-03-08T11:13:41;100344.81;;;25.93;18.87
13456;BME280;6800;50.940;6.940;2024-03-08T11:17:50;100355.97;;;24.97;19.99
13456;BME280;6800;50.940;6.940;2024-03-08T11:21:57;100354.53;;;24.80;19.66
13456;BME280;6800;50.940;6.940;2024-03-08T11:25:59;100345.56;;;25.59;19.21
13456;BME280;6800;50.940;6.940;2024-03-08T11:30:05;100325.63;;;25.05;19.78
13456;BME280;6800;50.940;6.940;2024-03-08T11:34:19;100327.00;;;24.21;20.28
13456;BME280;6800;50.940;6.940;2024-03-08T11:38:20;100324.16;;;23.71;20.65
13456;BME280;6800;50.940;6.940;2024-03-08T11:42:22;100319.31;;;22.68;22.08
13456;BME280;6800;50.940;6.940;2024-03-08T11:46:24;100325.50;;;20.75;24.11
13456;BME280;6800;50.940;6.940;2024-03-08T11:50:26;100308.94;;;24.82;20.18
13456;BME280;6800;50.940;6.940;2024-03-08T11:54:27;100305.41;;;21.78;22.87
13456;BME280;6800;50.940;6.940;2024-03-08T11:58:31;100292.47;;;23.31;21.51
13456;BME280;6800;50.940;6.940;2024-03-08T12:02:33;100288.97;;;23.53;20.84
13456;BME280;6800;50.940;6.940;2024-03-08T12:06:40;100276.03;;;26.14;19.38
13456;BME280;6800;50.940;6.940;2024-03-08T12:10:42;100294.44;;;21.90;22.98
13456;BME280;6800;50.940;6.940;2024-03-08T12:14:44;100271.91;;;23.62;21.20
13456;BME280;6800;50.940;6.940;2024-03-08T12:18:46;100273.56;;;22.25;22.54
13456;BME280;6800;50.940;6.940;2024-03-08T12:22:48;100282.81;;;21.50;23.11
13456;BME280;6800;50.940;6.940;2024-03-08T12:26:50;100288.56;;;20.32;24.60
13456;BME280;6800;50.940;6.940;2024-03-08T12:30:52;100278.56;;;20.26;24.38
13456;BME280;6800;50.940;6.940;2024-03-08T12:35:00;100256.72;;;19.47;25.30
13456;BME280;6800;50.940;6.940;2024-03-08T12:39:02;100257.28;;;19.58;25.15
13456;BME280;6800;50.940;6.940;2024-03-08T12:43:05;100257.91;;;18.99;25.76
13456;BME280;6800;50.940;6.940;2024-03-08T12:47:07;100248.66;;;18.14;26.94
13456;BME280;6800;50.940;6.940;2024-03-08T12:51:10;100239.59;;;18.53;26.01
13456;BME280;6800;50.940;6.940;2024-03-08T12:55:12;100245.22;;;18.40;26.67
13456;BME280;6800;50.940;6.940;2024-03-08T12:59:14;100234.25;;;18.08;26.94
13456;BME280;6800;50.940;6.940;2024-03-08T13:03:15;100221.19;;;18.96;26.00
13456;BME280;6800;50.940;6.940;2024-03-08T13:07:18;100209.44;;;17.91;27.64
13456;BME280;6800;50.940;6.940;2024-03-08T13:11:20;100203.03;;;18.84;26.44
13456;BME280;6800;50.940;6.940;2024-03-08T13:15:22;100188.00;;;18.84;26.39
13456;BME280;6800;50.940;6.940;2024-03-08T13:19:24;100190.09;;;18.45;26.91
13456;BME280;6800;50.940;6.940;2024-03-08T13:23:29;100182.94;;;19.85;25.60
13456;BME280;6800;50.940;6.940;2024-03-08T13:27:30;100185.69;;;18.63;26.88
13456;BME280;6800;50.940;6.940;2024-03-08T13:31:32;100173.50;;;18.53;27.34
13456;BME280;6800;50.940;6.940;2024-03-08T13:35:35;100165.53;;;19.49;26.22
13456;BME280;6800;50.940;6.940;2024-03-08T13:39:37;100162.78;;;19.92;25.77
13456;BME280;6800;50.940;6.940;2024-03-08T13:43:43;100153.00;;;19.85;25.64
13456;BME280;6800;50.940;6.940;2024-03-08T13:47:46;100150.09;;;19.19;26.40
13456;BME280;6800;50.940;6.940;2024-03-08T13:51:48;100119.91;;;18.33;27.74
13456;BME280;6800;50.940;6.940;2024-03-08T13:55:51;100132.03;;;19.14;26.74
13456;BME280;6800;50.940;6.940;2024-03-08T13:59:52;100124.78;;;19.76;25.81
13456;BME280;6800;50.940;6.940;2024-03-08T14:03:54;100116.41;;;19.03;26.24
13456;BME280;6800;50.940;6.940;2024-03-08T14:07:56;100098.94;;;18.67;26.43
13456;BME280;6800;50.940;6.940;2024-03-08T14:11:58;100106.91;;;19.36;25.81
13456;BME280;6800;50.940;6.940;2024-03-08T14:16:00;100106.28;;;18.99;26.39
13456;BME280;6800;50.940;6.940;2024-03-08T14:20:01;100089.13;;;19.28;26.01
13456;BME280;6800;50.940;6.940;2024-03-08T14:24:03;100084.16;;;19.25;26.19
13456;BME280;6800;50.940;6.940;2024-03-08T14:28:05;100069.25;;;19.50;26.20
13456;BME280;6800;50.940;6.940;2024-03-08T14:32:08;100060.38;;;19.33;25.53
13456;BME280;6800;50.940;6.940;2024-03-08T14:36:11;100062.28;;;19.49;26.10
13456;BME280;6800;50.940;6.940;2024-03-08T14:40:15;100049.50;;;19.78;25.55
13456;BME280;6800;50.940;6.940;2024-03-08T14:44:17;100039.50;;;19.30;26.36
13456;BME280;6800;50.940;6.940;2024-03-08T14:48:20;100045.97;;;18.77;27.55
13456;BME280;6800;50.940;6.940;2024-03-08T14:52:22;100041.28;;;19.22;26.57
13456;BME280;6800;50.940;6.940;2024-03-08T14:56:31;100033.91;;;19.33;26.98
13456;BME280;6800;50.940;6.940;2024-03-08T15:00:32;100033.03;;;19.25;26.59
13456;BME280;6800;50.940;6.940;2024-03-08T15:04:39;100035.06;;;19.05;27.08
13456;BME280;6800;50.940;6.940;2024-03-08T15:08:42;100017.84;;;19.77;26.15
13456;BME280;6800;50.940;6.940;2024-03-08T15:12:45;100003.75;;;19.68;26.46
13456;BME280;6800;50.940;6.940;2024-03-08T15:16:52;100004.59;;;19.27;26.50
13456;BME280;6800;50.940;6.940;2024-03-08T15:20:54;99997.63;;;19.26;26.55
13456;BME280;6800;50.940;6.940;2024-03-08T15:24:56;99992.44;;;19.42;26.44
13456;BME280;6800;50.940;6.940;2024-03-08T15:28:59;99996.50;;;18.95;26.74
13456;BME280;6800;50.940;6.940;2024-03-08T15:33:02;99976.94;;;19.55;26.05
13456;BME280;6800;50.940;6.940;2024-03-08T15:37:04;99987.78;;;19.36;26.19
13456;BME280;6800;50.940;6.940;2024-03-08T15:41:06;99987.88;;;18.93;26.74
13456;BME280;6800;50.940;6.940;2024-03-08T15:45:11;99978.13;;;18.93;26.40
13456;BME280;6800;50.940;6.940;2024-03-08T15:49:13;99978.84;;;19.03;26.25
13456;BME280;6800;50.940;6.940;2024-03-08T15:53:15;99981.69;;;19.43;26.08
13456;BME280;6800;50.940;6.940;2024-03-08T15:57:17;99982.31;;;19.37;26.86
13456;BME280;6800;50.940;6.940;2024-03-08T16:01:21;99985.75;;;18.70;27.21
13456;BME280;6800;50.940;6.940;2024-03-08T16:05:24;99982.63;;;19.01;26.86
13456;BME280;6800;50.940;6.940;2024-03-08T16:09:25;99977.47;;;19.33;26.82
13456;BME280;6800;50.940;6.940;2024-03-08T16:13:30;99969.97;;;18.79;26.96
13456;BME280;6800;50.940;6.940;2024-03-08T16:17:31;99973.84;;;19.00;26.77
13456;BME280;6800;50.940;6.940;2024-03-08T16:21:34;99982.22;;;18.36;27.58
13456;BME280;6800;50.940;6.940;2024-03-08T16:25:36;99980.72;;;18.16;28.17
13456;BME280;6800;50.940;6.940;2024-03-08T16:29:37;99975.84;;;18.73;27.48
13456;BME280;6800;50.940;6.940;2024-03-08T16:33:40;99968.72;;;18.65;27.90
13456;BME280;6800;50.940;6.940;2024-03-08T16:37:42;99969.34;;;18.59;27.81
13456;BME280;6800;50.940;6.940;2024-03-08T16:41:43;99956.13;;;18.41;28.15
13456;BME280;6800;50.940;6.940;2024-03-08T16:45:48;99957.91;;;18.84;27.54
13456;BME280;6800;50.940;6.940;2024-03-08T16:49:54;99950.25;;;18.04;28.79
13456;BME280;6800;50.940;6.940;2024-03-08T16:53:56;99963.97;;;17.90;29.17
13456;BME280;6800;50.940;6.940;2024-03-08T16:57:57;99947.69;;;18.55;28.64
13456;BME280;6800;50.940;6.940;2024-03-08T17:02:00;99942.59;;;18.19;28.78
13456;BME280;6800;50.940;6.940;2024-03-08T17:06:02;99950.19;;;17.96;29.20
13456;BME280;6800;50.940;6.940;2024-03-08T17:10:07;99950.75;;;18.08;29.12
13456;BME280;6800;50.940;6.940;2024-03-08T17:14:16;99945.22;;;18.36;28.74
13456;BME280;6800;50.940;6.940;2024-03-08T17:18:20;99950.88;;;17.98;29.16
13456;BME280;6800;50.940;6.940;2024-03-08T17:22:21;99954.91;;;18.10;29.29
13456;BME280;6800;50.940;6.940;2024-03-08T17:26:23;99961.66;;;17.87;29.64
13456;BME280;6800;50.940;6.940;2024-03-08T17:30:28;99958.84;;;17.71;29.98
13456;BME280;6800;50.940;6.940;2024-03-08T17:34:29;99949.72;;;17.83;29.80
13456;BME280;6800;50.940;6.940;2024-03-08T17:38:33;99947.44;;;18.23;29.71
13456;BME280;6800;50.940;6.940;2024-03-08T17:42:35;99950.91;;;18.06;30.11
13456;BME280;6800;50.940;6.940;2024-03-08T17:46:36;99949.56;;;18.02;29.94
13456;BME280;6800;50.940;6.940;2024-03-08T17:50:39;99949.03;;;17.99;30.09
13456;BME280;6800;50.940;6.940;2024-03-08T17:54:45;99947.84;;;17.58;30.65
13456;BME280;6800;50.940;6.940;2024-03-08T17:58:47;99950.09;;;18.06;30.33
13456;BME280;6800;50.940;6.940;2024-03-08T18:02:53;99950.69;;;17.82;30.52
13456;BME280;6800;50.940;6.940;2024-03-08T18:06:55;99950.91;;;17.71;30.49
13456;BME280;6800;50.940;6.940;2024-03-08T18:10:56;99956.34;;;17.69;30.62
13456;BME280;6800;50.940;6.940;2024-03-08T18:14:58;99939.31;;;17.64;31.22
13456;BME280;6800;50.940;6.940;2024-03-08T18:19:00;99942.31;;;17.69;30.92
13456;BME280;6800;50.940;6.940;2024-03-08T18:23:08;99935.91;;;17.71;30.92
13456;BME280;6800;50.940;6.940;2024-03-08T18:27:09;99933.72;;;17.84;31.06
13456;BME280;6800;50.940;6.940;2024-03-08T18:31:11;99933.25;;;17.54;31.06
13456;BME280;6800;50.940;6.940;2024-03-08T18:35:14;99926.72;;;17.58;31.28
13456;BME280;6800;50.940;6.940;2024-03-08T18:39:19;99918.94;;;17.74;30.99
13456;BME280;6800;50.940;6.940;2024-03-08T18:43:30;99918.25;;;17.54;31.55
13456;BME280;6800;50.940;6.940;2024-03-08T18:47:35;99914.41;;;17.49;31.36
13456;BME280;6800;50.940;6.940;2024-03-08T18:51:37;99911.34;;;17.53;31.67
13456;BME280;6800;50.940;6.940;2024-03-08T18:55:39;99914.41;;;17.49;31.33
13456;BME280;6800;50.940;6.940;2024-03-08T18:59:40;99903.09;;;17.11;31.95
13456;BME280;6800;50.940;6.940;2024-03-08T19:03:42;99901.69;;;17.17;31.97
13456;BME280;6800;50.940;6.940;2024-03-08T19:07:48;99902.69;;;17.34;31.79
13456;BME280;6800;50.940;6.940;2024-03-08T19:11:51;99896.56;;;17.33;31.71
13456;BME280;6800;50.940;6.940;2024-03-08T19:15:55;99894.09;;;17.32;33.11
13456;BME280;6800;50.940;6.940;2024-03-08T19:19:57;99886.59;;;17.09;32.64
13456;BME280;6800;50.940;6.940;2024-03-08T19:23:59;99890.25;;;16.81;32.31
13456;BME280;6800;50.940;6.940;2024-03-08T19:28:05;99884.50;;;17.13;32.17
13456;BME280;6800;50.940;6.940;2024-03-08T19:32:07;99878.66;;;16.92;32.53
13456;BME280;6800;50.940;6.940;2024-03-08T19:36:12;99881.44;;;17.17;32.06
13456;BME280;6800;50.940;6.940;2024-03-08T19:40:19;99875.53;;;17.06;32.21
13456;BME280;6800;50.940;6.940;2024-03-08T19:44:21;99871.44;;;16.94;32.48
13456;BME280;6800;50.940;6.940;2024-03-08T19:48:22;99876.25;;;16.71;32.81
13456;BME280;6800;50.940;6.940;2024-03-08T19:52:25;99864.94;;;16.88;32.55
13456;BME280;6800;50.940;6.940;2024-03-08T19:56:27;99858.78;;;16.70;32.77
13456;BME280;6800;50.940;6.940;2024-03-08T20:00:29;99861.19;;;16.64;32.84
13456;BME280;6800;50.940;6.940;2024-03-08T20:04:33;99845.63;;;16.70;32.87
13456;BME280;6800;50.940;6.940;2024-03-08T20:08:34;99843.63;;;16.45;33.29
13456;BME280;6800;50.940;6.940;2024-03-08T20:12:38;99835.25;;;16.59;32.98
13456;BME280;6800;50.940;6.940;2024-03-08T20:16:40;99827.91;;;16.26;33.58
13456;BME280;6800;50.940;6.940;2024-03-08T20:20:41;99817.25;;;16.55;32.76
13456;BME280;6800;50.940;6.940;2024-03-08T20:24:54;99823.63;;;16.52;32.67
13456;BME280;6800;50.940;6.940;2024-03-08T20:28:56;99821.22;;;16.31;33.25
13456;BME280;6800;50.940;6.940;2024-03-08T20:33:00;99810.84;;;16.20;33.30
13456;BME280;6800;50.940;6.940;2024-03-08T20:37:04;99813.84;;;16.35;32.87
13456;BME280;6800;50.940;6.940;2024-03-08T20:41:10;99817.19;;;16.37;34.56
13456;BME280;6800;50.940;6.940;2024-03-08T20:45:13;99806.59;;;16.47;33.68
13456;BME280;6800;50.940;6.940;2024-03-08T20:49:14;99814.50;;;16.47;33.24
13456;BME280;6800;50.940;6.940;2024-03-08T20:53:16;99813.31;;;16.31;33.39
13456;BME280;6800;50.940;6.940;2024-03-08T20:57:18;99811.59;;;16.13;33.08
13456;BME280;6800;50.940;6.940;2024-03-08T21:01:20;99810.09;;;16.37;32.82
13456;BME280;6800;50.940;6.940;2024-03-08T21:05:21;99813.75;;;16.27;32.99
13456;BME280;6800;50.940;6.940;2024-03-08T21:09:24;99817.28;;;16.08;33.49
13456;BME280;6800;50.940;6.940;2024-03-08T21:13:25;99814.84;;;16.24;33.28
13456;BME280;6800;50.940;6.940;2024-03-08T21:17:28;99816.63;;;15.97;33.50
13456;BME280;6800;50.940;6.940;2024-03-08T21:21:30;99819.13;;;15.98;33.45
13456;BME280;6800;50.940;6.940;2024-03-08T21:25:34;99829.44;;;16.19;33.08
13456;BME280;6800;50.940;6.940;2024-03-08T21:29:39;99824.75;;;16.13;33.32